sensor_id;sensor_type;location;lat;lon;timestamp;P1;durP1;ratioP1;P2;durP2;ratioP2
24273;SDS011;12392;42.678;23.380;2023-12-28T00:00:48;169.93;;;82.25;;
24273;SDS011;12392;42.678;23.380;2023-12-28T00:03:14;163.30;;;80.50;;
24273;SDS011;12392;42.678;23.380;2023-12-28T00:05:40;147.82;;;76.90;;
24273;SDS011;12392;42.678;23.380;2023-12-28T00:08:06;154.70;;;78.38;;
24273;SDS011;12392;42.678;23.380;2023-12-28T00:10:31;146.88;;;69.50;;
24273;SDS011;12392;42.678;23.380;2023-12-28T00:12:57;124.55;;;63.20;;
24273;SDS011;12392;42.678;23.380;2023-12-28T00:15:23;133.07;;;66.13;;
24273;SDS011;12392;42.678;23.380;2023-12-28T00:17:48;133.07;;;64.35;;
24273;SDS011;12392;42.678;23.380;2023-12-28T00:20:14;123.50;;;60.17;;
24273;SDS011;12392;42.678;23.380;2023-12-28T00:22:40;106.35;;;56.13;;
24273;SDS011;12392;42.678;23.380;2023-12-28T00:25:06;108.30;;;56.13;;
24273;SDS011;12392;42.678;23.380;2023-12-28T00:27:32;123.60;;;61.30;;
24273;SDS011;12392;42.678;23.380;2023-12-28T00:30:02;107.47;;;55.78;;
24273;SDS011;12392;42.678;23.380;2023-12-28T00:32:30;101.78;;;52.03;;
24273;SDS011;12392;42.678;23.380;2023-12-28T00:34:55;100.57;;;51.45;;
24273;SDS011;12392;42.678;23.380;2023-12-28T00:37:21;96.22;;;51.00;;
24273;SDS011;12392;42.678;23.380;2023-12-28T00:39:46;94.72;;;50.35;;
24273;SDS011;12392;42.678;23.380;2023-12-28T00:42:14;75.55;;;40.00;;
24273;SDS011;12392;42.678;23.380;2023-12-28T00:44:40;79.13;;;44.13;;
24273;SDS011;12392;42.678;23.380;2023-12-28T00:47:06;74.07;;;43.25;;
24273;SDS011;12392;42.678;23.380;2023-12-28T00:49:32;62.95;;;34.67;;
24273;SDS011;12392;42.678;23.380;2023-12-28T00:51:58;74.63;;;40.28;;
24273;SDS011;12392;42.678;23.380;2023-12-28T00:54:23;86.90;;;44.33;;
24273;SDS011;12392;42.678;23.380;2023-12-28T00:56:49;74.35;;;38.80;;
24273;SDS011;12392;42.678;23.380;2023-12-28T00:59:15;78.90;;;41.70;;
24273;SDS011;12392;42.678;23.380;2023-12-28T01:01:40;80.22;;;39.95;;
24273;SDS011;12392;42.678;23.380;2023-12-28T01:04:06;70.55;;;39.08;;
24273;SDS011;12392;42.678;23.380;2023-12-28T01:06:31;71.13;;;38.47;;
24273;SDS011;12392;42.678;23.380;2023-12-28T01:08:57;75.20;;;40.05;;
24273;SDS011;12392;42.678;23.380;2023-12-28T01:11:23;70.15;;;39.58;;
24273;SDS011;12392;42.678;23.380;2023-12-28T01:13:48;70.63;;;38.78;;
24273;SDS011;12392;42.678;23.380;2023-12-28T01:16:16;70.07;;;39.80;;
24273;SDS011;12392;42.678;23.380;2023-12-28T01:18:42;67.25;;;35.97;;
24273;SDS011;12392;42.678;23.380;2023-12-28T01:21:08;63.40;;;33.63;;
24273;SDS011;12392;42.678;23.380;2023-12-28T01:23:34;59.45;;;32.97;;
24273;SDS011;12392;42.678;23.380;2023-12-28T01:26:00;53.33;;;31.40;;
24273;SDS011;12392;42.678;23.380;2023-12-28T01:28:27;55.00;;;31.27;;
24273;SDS011;12392;42.678;23.380;2023-12-28T01:30:53;54.45;;;30.30;;
24273;SDS011;12392;42.678;23.380;2023-12-28T01:33:18;51.63;;;28.52;;
24273;SDS011;12392;42.678;23.380;2023-12-28T01:35:44;53.95;;;26.52;;
24273;SDS011;12392;42.678;23.380;2023-12-28T01:38:10;43.97;;;25.25;;
24273;SDS011;12392;42.678;23.380;2023-12-28T01:40:35;40.25;;;22.88;;
24273;SDS011;12392;42.678;23.380;2023-12-28T01:43:01;47.30;;;22.90;;
24273;SDS011;12392;42.678;23.380;2023-12-28T01:45:27;36.67;;;19.83;;
24273;SDS011;12392;42.678;23.380;2023-12-28T01:47:53;52.72;;;26.65;;
24273;SDS011;12392;42.678;23.380;2023-12-28T01:50:21;48.35;;;26.77;;
24273;SDS011;12392;42.678;23.380;2023-12-28T01:52:47;44.70;;;25.65;;
24273;SDS011;12392;42.678;23.380;2023-12-28T01:55:14;47.65;;;26.52;;
24273;SDS011;12392;42.678;23.380;2023-12-28T01:57:40;49.30;;;26.15;;
24273;SDS011;12392;42.678;23.380;2023-12-28T02:00:06;48.58;;;25.85;;
24273;SDS011;12392;42.678;23.380;2023-12-28T02:02:32;39.67;;;23.50;;
24273;SDS011;12392;42.678;23.380;2023-12-28T02:04:58;38.85;;;22.63;;
24273;SDS011;12392;42.678;23.380;2023-12-28T02:07:24;36.50;;;20.20;;
24273;SDS011;12392;42.678;23.380;2023-12-28T02:09:50;33.75;;;18.23;;
24273;SDS011;12392;42.678;23.380;2023-12-28T02:12:16;27.35;;;15.88;;
24273;SDS011;12392;42.678;23.380;2023-12-28T02:14:42;31.58;;;20.25;;
24273;SDS011;12392;42.678;23.380;2023-12-28T02:19:53;38.95;;;21.77;;
24273;SDS011;12392;42.678;23.380;2023-12-28T02:22:19;34.00;;;20.25;;
24273;SDS011;12392;42.678;23.380;2023-12-28T02:27:34;35.40;;;19.13;;
24273;SDS011;12392;42.678;23.380;2023-12-28T02:30:06;34.60;;;20.13;;
24273;SDS011;12392;42.678;23.380;2023-12-28T02:35:01;44.30;;;27.30;;
24273;SDS011;12392;42.678;23.380;2023-12-28T02:37:43;81.63;;;40.63;;
24273;SDS011;12392;42.678;23.380;2023-12-28T02:40:10;77.53;;;39.67;;
24273;SDS011;12392;42.678;23.380;2023-12-28T02:42:37;87.82;;;37.95;;
24273;SDS011;12392;42.678;23.380;2023-12-28T02:45:04;69.75;;;39.53;;
24273;SDS011;12392;42.678;23.380;2023-12-28T02:47:30;61.20;;;32.65;;
24273;SDS011;12392;42.678;23.380;2023-12-28T02:49:55;72.05;;;38.42;;
24273;SDS011;12392;42.678;23.380;2023-12-28T02:52:24;67.28;;;35.50;;
24273;SDS011;12392;42.678;23.380;2023-12-28T02:54:49;65.40;;;36.53;;
24273;SDS011;12392;42.678;23.380;2023-12-28T02:57:15;53.72;;;30.15;;
24273;SDS011;12392;42.678;23.380;2023-12-28T02:59:44;61.83;;;31.38;;
24273;SDS011;12392;42.678;23.380;2023-12-28T03:02:10;62.25;;;35.92;;
24273;SDS011;12392;42.678;23.380;2023-12-28T03:04:36;59.10;;;33.17;;
24273;SDS011;12392;42.678;23.380;2023-12-28T03:07:01;51.67;;;29.60;;
24273;SDS011;12392;42.678;23.380;2023-12-28T03:09:27;57.42;;;31.33;;
24273;SDS011;12392;42.678;23.380;2023-12-28T03:11:53;61.47;;;33.08;;
24273;SDS011;12392;42.678;23.380;2023-12-28T03:14:19;57.38;;;33.00;;
24273;SDS011;12392;42.678;23.380;2023-12-28T03:16:46;54.47;;;30.95;;
24273;SDS011;12392;42.678;23.380;2023-12-28T03:19:12;63.40;;;37.38;;
24273;SDS011;12392;42.678;23.380;2023-12-28T03:21:40;66.53;;;38.22;;
24273;SDS011;12392;42.678;23.380;2023-12-28T03:24:07;64.63;;;38.13;;
24273;SDS011;12392;42.678;23.380;2023-12-28T03:26:33;71.05;;;39.28;;
24273;SDS011;12392;42.678;23.380;2023-12-28T03:29:06;73.70;;;38.97;;
24273;SDS011;12392;42.678;23.380;2023-12-28T03:31:32;74.20;;;39.05;;
24273;SDS011;12392;42.678;23.380;2023-12-28T03:33:58;61.20;;;35.42;;
24273;SDS011;12392;42.678;23.380;2023-12-28T03:36:24;62.28;;;35.72;;
24273;SDS011;12392;42.678;23.380;2023-12-28T03:38:50;64.30;;;35.75;;
24273;SDS011;12392;42.678;23.380;2023-12-28T03:41:19;61.78;;;33.92;;
24273;SDS011;12392;42.678;23.380;2023-12-28T03:43:45;60.42;;;34.13;;
24273;SDS011;12392;42.678;23.380;2023-12-28T03:46:11;61.03;;;35.40;;
24273;SDS011;12392;42.678;23.380;2023-12-28T03:48:37;67.35;;;36.95;;
24273;SDS011;12392;42.678;23.380;2023-12-28T03:51:03;59.30;;;33.00;;
24273;SDS011;12392;42.678;23.380;2023-12-28T03:53:30;55.50;;;31.67;;
24273;SDS011;12392;42.678;23.380;2023-12-28T03:55:59;65.20;;;32.50;;
24273;SDS011;12392;42.678;23.380;2023-12-28T03:58:24;60.90;;;31.73;;
24273;SDS011;12392;42.678;23.380;2023-12-28T04:00:50;52.95;;;30.58;;
24273;SDS011;12392;42.678;23.380;2023-12-28T04:03:16;53.92;;;30.50;;
24273;SDS011;12392;42.678;23.380;2023-12-28T04:05:43;52.55;;;27.73;;
24273;SDS011;12392;42.678;23.380;2023-12-28T04:08:09;52.65;;;27.40;;
24273;SDS011;12392;42.678;23.380;2023-12-28T04:10:34;50.47;;;26.00;;
24273;SDS011;12392;42.678;23.380;2023-12-28T04:13:02;52.80;;;25.88;;
24273;SDS011;12392;42.678;23.380;2023-12-28T04:15:28;46.25;;;25.95;;
24273;SDS011;12392;42.678;23.380;2023-12-28T04:17:54;43.28;;;24.55;;
24273;SDS011;12392;42.678;23.380;2023-12-28T04:20:20;47.33;;;24.67;;
24273;SDS011;12392;42.678;23.380;2023-12-28T04:22:46;38.47;;;24.17;;
24273;SDS011;12392;42.678;23.380;2023-12-28T04:25:11;39.20;;;23.13;;
24273;SDS011;12392;42.678;23.380;2023-12-28T04:27:37;41.80;;;23.00;;
24273;SDS011;12392;42.678;23.380;2023-12-28T04:30:04;36.90;;;22.50;;
24273;SDS011;12392;42.678;23.380;2023-12-28T04:32:30;40.50;;;24.08;;
24273;SDS011;12392;42.678;23.380;2023-12-28T04:34:59;47.85;;;23.80;;
24273;SDS011;12392;42.678;23.380;2023-12-28T04:37:24;41.78;;;24.27;;
24273;SDS011;12392;42.678;23.380;2023-12-28T04:39:53;45.38;;;25.92;;
24273;SDS011;12392;42.678;23.380;2023-12-28T04:42:19;43.08;;;24.95;;
24273;SDS011;12392;42.678;23.380;2023-12-28T04:44:44;44.15;;;24.35;;
24273;SDS011;12392;42.678;23.380;2023-12-28T04:47:10;39.22;;;23.38;;
24273;SDS011;12392;42.678;23.380;2023-12-28T04:49:36;35.95;;;20.85;;
24273;SDS011;12392;42.678;23.380;2023-12-28T04:52:01;36.67;;;20.45;;
24273;SDS011;12392;42.678;23.380;2023-12-28T04:54:27;34.58;;;20.67;;
24273;SDS011;12392;42.678;23.380;2023-12-28T04:56:53;36.15;;;20.92;;
24273;SDS011;12392;42.678;23.380;2023-12-28T04:59:19;32.22;;;19.73;;
24273;SDS011;12392;42.678;23.380;2023-12-28T05:01:44;38.28;;;21.83;;
24273;SDS011;12392;42.678;23.380;2023-12-28T05:04:10;42.10;;;22.08;;
24273;SDS011;12392;42.678;23.380;2023-12-28T05:06:36;40.30;;;22.95;;
24273;SDS011;12392;42.678;23.380;2023-12-28T05:09:02;40.78;;;21.80;;
24273;SDS011;12392;42.678;23.380;2023-12-28T05:11:28;66.80;;;40.42;;
24273;SDS011;12392;42.678;23.380;2023-12-28T05:13:54;113.28;;;65.93;;
24273;SDS011;12392;42.678;23.380;2023-12-28T05:16:20;114.05;;;69.47;;
24273;SDS011;12392;42.678;23.380;2023-12-28T05:18:46;107.88;;;59.92;;
24273;SDS011;12392;42.678;23.380;2023-12-28T05:21:12;104.05;;;55.53;;
24273;SDS011;12392;42.678;23.380;2023-12-28T05:23:38;148.63;;;95.63;;
24273;SDS011;12392;42.678;23.380;2023-12-28T05:26:04;220.23;;;157.00;;
24273;SDS011;12392;42.678;23.380;2023-12-28T05:28:31;270.42;;;190.60;;
24273;SDS011;12392;42.678;23.380;2023-12-28T05:30:56;287.85;;;207.38;;
24273;SDS011;12392;42.678;23.380;2023-12-28T05:33:24;243.95;;;160.70;;
24273;SDS011;12392;42.678;23.380;2023-12-28T05:35:50;221.85;;;146.45;;
24273;SDS011;12392;42.678;23.380;2023-12-28T05:38:16;224.70;;;151.35;;
24273;SDS011;12392;42.678;23.380;2023-12-28T05:40:42;247.02;;;175.73;;
24273;SDS011;12392;42.678;23.380;2023-12-28T05:43:09;237.52;;;160.10;;
24273;SDS011;12392;42.678;23.380;2023-12-28T05:45:35;216.65;;;146.65;;
24273;SDS011;12392;42.678;23.380;2023-12-28T05:48:01;197.82;;;127.00;;
24273;SDS011;12392;42.678;23.380;2023-12-28T05:50:27;164.05;;;105.57;;
24273;SDS011;12392;42.678;23.380;2023-12-28T05:52:53;143.00;;;86.18;;
24273;SDS011;12392;42.678;23.380;2023-12-28T05:55:18;81.50;;;49.97;;
24273;SDS011;12392;42.678;23.380;2023-12-28T05:57:44;101.30;;;50.75;;
24273;SDS011;12392;42.678;23.380;2023-12-28T06:00:10;79.07;;;30.25;;
24273;SDS011;12392;42.678;23.380;2023-12-28T06:02:36;122.88;;;43.70;;
24273;SDS011;12392;42.678;23.380;2023-12-28T06:05:01;119.97;;;40.00;;
24273;SDS011;12392;42.678;23.380;2023-12-28T06:07:27;90.93;;;40.20;;
24273;SDS011;12392;42.678;23.380;2023-12-28T06:09:53;86.70;;;38.72;;
24273;SDS011;12392;42.678;23.380;2023-12-28T06:12:18;68.15;;;35.63;;
24273;SDS011;12392;42.678;23.380;2023-12-28T06:14:44;62.67;;;30.70;;
24273;SDS011;12392;42.678;23.380;2023-12-28T06:17:10;62.72;;;30.58;;
24273;SDS011;12392;42.678;23.380;2023-12-28T06:19:35;40.15;;;23.92;;
24273;SDS011;12392;42.678;23.380;2023-12-28T06:22:01;45.90;;;21.33;;
24273;SDS011;12392;42.678;23.380;2023-12-28T06:24:27;45.97;;;19.73;;
24273;SDS011;12392;42.678;23.380;2023-12-28T06:26:52;42.22;;;21.38;;
24273;SDS011;12392;42.678;23.380;2023-12-28T06:29:18;61.67;;;22.10;;
24273;SDS011;12392;42.678;23.380;2023-12-28T06:31:44;68.82;;;23.17;;
24273;SDS011;12392;42.678;23.380;2023-12-28T06:34:09;61.00;;;23.20;;
24273;SDS011;12392;42.678;23.380;2023-12-28T06:36:35;66.95;;;22.00;;
24273;SDS011;12392;42.678;23.380;2023-12-28T06:39:01;55.97;;;25.65;;
24273;SDS011;12392;42.678;23.380;2023-12-28T06:41:26;69.13;;;24.45;;
24273;SDS011;12392;42.678;23.380;2023-12-28T06:43:52;48.10;;;23.75;;
24273;SDS011;12392;42.678;23.380;2023-12-28T06:46:18;43.47;;;24.52;;
24273;SDS011;12392;42.678;23.380;2023-12-28T06:48:44;43.25;;;24.27;;
24273;SDS011;12392;42.678;23.380;2023-12-28T06:51:15;42.25;;;24.02;;
24273;SDS011;12392;42.678;23.380;2023-12-28T06:53:45;43.60;;;24.95;;
24273;SDS011;12392;42.678;23.380;2023-12-28T06:56:11;42.45;;;24.52;;
24273;SDS011;12392;42.678;23.380;2023-12-28T06:58:36;36.47;;;22.35;;
24273;SDS011;12392;42.678;23.380;2023-12-28T07:01:03;37.42;;;20.83;;
24273;SDS011;12392;42.678;23.380;2023-12-28T07:03:29;38.10;;;22.02;;
24273;SDS011;12392;42.678;23.380;2023-12-28T07:05:57;35.83;;;21.20;;
24273;SDS011;12392;42.678;23.380;2023-12-28T07:08:23;38.75;;;23.88;;
24273;SDS011;12392;42.678;23.380;2023-12-28T07:10:49;41.78;;;22.45;;
24273;SDS011;12392;42.678;23.380;2023-12-28T07:13:15;42.75;;;23.33;;
24273;SDS011;12392;42.678;23.380;2023-12-28T07:15:40;37.38;;;23.13;;
24273;SDS011;12392;42.678;23.380;2023-12-28T07:18:06;38.35;;;23.10;;
24273;SDS011;12392;42.678;23.380;2023-12-28T07:20:32;36.22;;;19.83;;
24273;SDS011;12392;42.678;23.380;2023-12-28T07:22:57;41.00;;;21.70;;
24273;SDS011;12392;42.678;23.380;2023-12-28T07:25:23;38.13;;;21.00;;
24273;SDS011;12392;42.678;23.380;2023-12-28T07:27:49;40.60;;;21.10;;
24273;SDS011;12392;42.678;23.380;2023-12-28T07:30:14;35.53;;;21.20;;
24273;SDS011;12392;42.678;23.380;2023-12-28T07:32:41;35.70;;;22.15;;
24273;SDS011;12392;42.678;23.380;2023-12-28T07:35:08;37.45;;;22.05;;
24273;SDS011;12392;42.678;23.380;2023-12-28T07:37:34;41.53;;;22.48;;
24273;SDS011;12392;42.678;23.380;2023-12-28T07:40:00;40.00;;;22.63;;
24273;SDS011;12392;42.678;23.380;2023-12-28T07:42:26;41.08;;;22.73;;
24273;SDS011;12392;42.678;23.380;2023-12-28T07:44:52;40.75;;;22.75;;
24273;SDS011;12392;42.678;23.380;2023-12-28T07:47:17;38.58;;;22.85;;
24273;SDS011;12392;42.678;23.380;2023-12-28T07:49:43;34.70;;;20.85;;
24273;SDS011;12392;42.678;23.380;2023-12-28T07:52:09;30.80;;;20.13;;
24273;SDS011;12392;42.678;23.380;2023-12-28T07:54:34;35.55;;;20.00;;
24273;SDS011;12392;42.678;23.380;2023-12-28T07:57:00;35.63;;;20.58;;
24273;SDS011;12392;42.678;23.380;2023-12-28T07:59:25;30.92;;;20.10;;
24273;SDS011;12392;42.678;23.380;2023-12-28T08:01:51;30.83;;;19.40;;
24273;SDS011;12392;42.678;23.380;2023-12-28T08:04:17;35.70;;;20.25;;
24273;SDS011;12392;42.678;23.380;2023-12-28T08:06:42;31.77;;;19.98;;
24273;SDS011;12392;42.678;23.380;2023-12-28T08:09:08;27.38;;;19.17;;
24273;SDS011;12392;42.678;23.380;2023-12-28T08:11:34;33.95;;;19.92;;
24273;SDS011;12392;42.678;23.380;2023-12-28T08:14:00;31.30;;;19.25;;
24273;SDS011;12392;42.678;23.380;2023-12-28T08:16:29;33.10;;;20.65;;
24273;SDS011;12392;42.678;23.380;2023-12-28T08:18:55;29.60;;;19.63;;
24273;SDS011;12392;42.678;23.380;2023-12-28T08:21:21;40.42;;;19.98;;
24273;SDS011;12392;42.678;23.380;2023-12-28T08:23:46;36.38;;;19.55;;
24273;SDS011;12392;42.678;23.380;2023-12-28T08:26:12;34.65;;;19.65;;
24273;SDS011;12392;42.678;23.380;2023-12-28T08:28:38;36.47;;;21.10;;
24273;SDS011;12392;42.678;23.380;2023-12-28T08:31:03;32.10;;;20.00;;
24273;SDS011;12392;42.678;23.380;2023-12-28T08:33:29;30.55;;;18.70;;
24273;SDS011;12392;42.678;23.380;2023-12-28T08:35:55;33.63;;;20.85;;
24273;SDS011;12392;42.678;23.380;2023-12-28T08:38:20;32.65;;;19.15;;
24273;SDS011;12392;42.678;23.380;2023-12-28T08:40:46;30.63;;;20.15;;
24273;SDS011;12392;42.678;23.380;2023-12-28T08:43:12;30.27;;;18.70;;
24273;SDS011;12392;42.678;23.380;2023-12-28T08:45:37;35.63;;;17.42;;
24273;SDS011;12392;42.678;23.380;2023-12-28T08:48:03;28.02;;;17.58;;
24273;SDS011;12392;42.678;23.380;2023-12-28T08:50:30;42.80;;;18.48;;
24273;SDS011;12392;42.678;23.380;2023-12-28T08:52:55;35.55;;;17.88;;
24273;SDS011;12392;42.678;23.380;2023-12-28T08:55:21;32.53;;;18.13;;
24273;SDS011;12392;42.678;23.380;2023-12-28T08:57:47;39.65;;;20.25;;
24273;SDS011;12392;42.678;23.380;2023-12-28T09:00:13;33.08;;;20.88;;
24273;SDS011;12392;42.678;23.380;2023-12-28T09:02:42;33.58;;;20.45;;
24273;SDS011;12392;42.678;23.380;2023-12-28T09:05:08;31.88;;;20.60;;
24273;SDS011;12392;42.678;23.380;2023-12-28T09:07:34;36.58;;;21.42;;
24273;SDS011;12392;42.678;23.380;2023-12-28T09:10:01;36.65;;;20.60;;
24273;SDS011;12392;42.678;23.380;2023-12-28T09:12:28;33.53;;;20.45;;
24273;SDS011;12392;42.678;23.380;2023-12-28T09:14:54;39.17;;;22.80;;
24273;SDS011;12392;42.678;23.380;2023-12-28T09:17:23;40.78;;;26.05;;
24273;SDS011;12392;42.678;23.380;2023-12-28T09:19:49;53.15;;;33.00;;
24273;SDS011;12392;42.678;23.380;2023-12-28T09:22:15;43.97;;;29.67;;
24273;SDS011;12392;42.678;23.380;2023-12-28T09:24:40;47.80;;;32.70;;
24273;SDS011;12392;42.678;23.380;2023-12-28T09:27:06;39.13;;;24.98;;
24273;SDS011;12392;42.678;23.380;2023-12-28T09:29:32;41.63;;;27.08;;
24273;SDS011;12392;42.678;23.380;2023-12-28T09:31:59;39.58;;;26.70;;
24273;SDS011;12392;42.678;23.380;2023-12-28T09:34:24;68.00;;;48.83;;
24273;SDS011;12392;42.678;23.380;2023-12-28T09:36:50;66.57;;;44.03;;
24273;SDS011;12392;42.678;23.380;2023-12-28T09:39:16;55.90;;;36.58;;
24273;SDS011;12392;42.678;23.380;2023-12-28T09:41:43;45.35;;;29.05;;
24273;SDS011;12392;42.678;23.380;2023-12-28T09:44:11;37.30;;;23.63;;
24273;SDS011;12392;42.678;23.380;2023-12-28T09:46:37;37.42;;;24.88;;
24273;SDS011;12392;42.678;23.380;2023-12-28T09:49:06;39.17;;;25.10;;
24273;SDS011;12392;42.678;23.380;2023-12-28T09:51:32;36.80;;;23.08;;
24273;SDS011;12392;42.678;23.380;2023-12-28T09:53:57;39.78;;;22.48;;
24273;SDS011;12392;42.678;23.380;2023-12-28T09:56:23;31.02;;;20.88;;
24273;SDS011;12392;42.678;23.380;2023-12-28T09:58:50;29.58;;;20.38;;
24273;SDS011;12392;42.678;23.380;2023-12-28T10:01:17;25.40;;;16.92;;
24273;SDS011;12392;42.678;23.380;2023-12-28T10:03:43;29.58;;;19.38;;
24273;SDS011;12392;42.678;23.380;2023-12-28T10:06:09;26.60;;;16.92;;
24273;SDS011;12392;42.678;23.380;2023-12-28T10:08:34;25.58;;;16.08;;
24273;SDS011;12392;42.678;23.380;2023-12-28T10:11:01;27.42;;;16.58;;
24273;SDS011;12392;42.678;23.380;2023-12-28T10:13:27;27.92;;;17.15;;
24273;SDS011;12392;42.678;23.380;2023-12-28T10:15:56;29.65;;;16.73;;
24273;SDS011;12392;42.678;23.380;2023-12-28T10:18:22;32.88;;;16.92;;
24273;SDS011;12392;42.678;23.380;2023-12-28T10:20:52;29.90;;;18.92;;
24273;SDS011;12392;42.678;23.380;2023-12-28T10:23:18;28.67;;;17.80;;
24273;SDS011;12392;42.678;23.380;2023-12-28T10:25:45;28.17;;;18.17;;
24273;SDS011;12392;42.678;23.380;2023-12-28T10:28:11;33.83;;;18.10;;
24273;SDS011;12392;42.678;23.380;2023-12-28T10:30:37;29.55;;;18.40;;
24273;SDS011;12392;42.678;23.380;2023-12-28T10:33:05;31.75;;;20.58;;
24273;SDS011;12392;42.678;23.380;2023-12-28T10:35:31;29.60;;;19.25;;
24273;SDS011;12392;42.678;23.380;2023-12-28T10:37:58;36.83;;;19.25;;
24273;SDS011;12392;42.678;23.380;2023-12-28T10:40:25;37.75;;;18.95;;
24273;SDS011;12392;42.678;23.380;2023-12-28T10:42:57;29.90;;;18.10;;
24273;SDS011;12392;42.678;23.380;2023-12-28T10:45:26;33.33;;;18.27;;
24273;SDS011;12392;42.678;23.380;2023-12-28T10:47:56;34.10;;;17.77;;
24273;SDS011;12392;42.678;23.380;2023-12-28T10:50:34;34.30;;;17.80;;
24273;SDS011;12392;42.678;23.380;2023-12-28T10:56:17;36.85;;;19.77;;
24273;SDS011;12392;42.678;23.380;2023-12-28T10:58:58;35.53;;;20.85;;
24273;SDS011;12392;42.678;23.380;2023-12-28T11:01:49;29.65;;;19.58;;
24273;SDS011;12392;42.678;23.380;2023-12-28T11:04:28;35.17;;;19.80;;
24273;SDS011;12392;42.678;23.380;2023-12-28T11:06:59;35.58;;;20.17;;
24273;SDS011;12392;42.678;23.380;2023-12-28T11:09:27;36.95;;;20.20;;
24273;SDS011;12392;42.678;23.380;2023-12-28T11:11:56;39.65;;;21.38;;
24273;SDS011;12392;42.678;23.380;2023-12-28T11:14:24;29.48;;;19.20;;
24273;SDS011;12392;42.678;23.380;2023-12-28T11:16:50;36.35;;;20.88;;
24273;SDS011;12392;42.678;23.380;2023-12-28T11:19:16;30.42;;;19.83;;
24273;SDS011;12392;42.678;23.380;2023-12-28T11:21:41;34.08;;;22.05;;
24273;SDS011;12392;42.678;23.380;2023-12-28T11:24:08;39.97;;;23.13;;
24273;SDS011;12392;42.678;23.380;2023-12-28T11:26:34;39.83;;;24.05;;
24273;SDS011;12392;42.678;23.380;2023-12-28T11:29:00;39.78;;;23.95;;
24273;SDS011;12392;42.678;23.380;2023-12-28T11:31:27;40.15;;;25.50;;
24273;SDS011;12392;42.678;23.380;2023-12-28T11:33:52;40.88;;;24.55;;
24273;SDS011;12392;42.678;23.380;2023-12-28T11:36:22;35.35;;;21.80;;
24273;SDS011;12392;42.678;23.380;2023-12-28T11:38:52;34.15;;;23.13;;
24273;SDS011;12392;42.678;23.380;2023-12-28T11:41:22;39.28;;;21.80;;
24273;SDS011;12392;42.678;23.380;2023-12-28T11:43:53;39.20;;;22.67;;
24273;SDS011;12392;42.678;23.380;2023-12-28T11:46:22;43.42;;;25.85;;
24273;SDS011;12392;42.678;23.380;2023-12-28T11:48:48;46.72;;;24.92;;
24273;SDS011;12392;42.678;23.380;2023-12-28T11:51:14;43.30;;;24.60;;
24273;SDS011;12392;42.678;23.380;2023-12-28T11:53:40;38.75;;;24.20;;
24273;SDS011;12392;42.678;23.380;2023-12-28T11:56:07;42.90;;;23.75;;
24273;SDS011;12392;42.678;23.380;2023-12-28T11:58:35;36.85;;;20.52;;
24273;SDS011;12392;42.678;23.380;2023-12-28T12:01:03;34.47;;;21.33;;
24273;SDS011;12392;42.678;23.380;2023-12-28T12:03:29;31.98;;;20.55;;
24273;SDS011;12392;42.678;23.380;2023-12-28T12:05:55;42.75;;;20.63;;
24273;SDS011;12392;42.678;23.380;2023-12-28T12:08:22;24.33;;;14.90;;
24273;SDS011;12392;42.678;23.380;2023-12-28T12:10:48;31.70;;;14.10;;
24273;SDS011;12392;42.678;23.380;2023-12-28T12:13:25;20.05;;;13.40;;
24273;SDS011;12392;42.678;23.380;2023-12-28T12:15:52;24.58;;;14.02;;
24273;SDS011;12392;42.678;23.380;2023-12-28T12:18:18;27.70;;;15.68;;
24273;SDS011;12392;42.678;23.380;2023-12-28T12:20:44;32.88;;;15.10;;
24273;SDS011;12392;42.678;23.380;2023-12-28T12:23:10;24.15;;;13.68;;
24273;SDS011;12392;42.678;23.380;2023-12-28T12:25:37;20.98;;;12.20;;
24273;SDS011;12392;42.678;23.380;2023-12-28T12:28:03;25.10;;;12.10;;
24273;SDS011;12392;42.678;23.380;2023-12-28T12:30:29;20.33;;;12.68;;
24273;SDS011;12392;42.678;23.380;2023-12-28T12:32:55;23.08;;;12.95;;
24273;SDS011;12392;42.678;23.380;2023-12-28T12:35:21;21.10;;;12.75;;
24273;SDS011;12392;42.678;23.380;2023-12-28T12:37:47;28.00;;;13.05;;
24273;SDS011;12392;42.678;23.380;2023-12-28T12:40:14;24.17;;;13.18;;
24273;SDS011;12392;42.678;23.380;2023-12-28T12:42:41;22.00;;;13.15;;
24273;SDS011;12392;42.678;23.380;2023-12-28T12:45:07;25.05;;;13.82;;
24273;SDS011;12392;42.678;23.380;2023-12-28T12:47:33;24.92;;;14.68;;
24273;SDS011;12392;42.678;23.380;2023-12-28T12:50:02;23.50;;;14.98;;
24273;SDS011;12392;42.678;23.380;2023-12-28T12:52:28;26.92;;;17.33;;
24273;SDS011;12392;42.678;23.380;2023-12-28T12:54:57;32.50;;;19.67;;
24273;SDS011;12392;42.678;23.380;2023-12-28T12:57:24;41.88;;;21.88;;
24273;SDS011;12392;42.678;23.380;2023-12-28T12:59:51;37.53;;;22.23;;
24273;SDS011;12392;42.678;23.380;2023-12-28T13:02:17;35.30;;;20.77;;
24273;SDS011;12392;42.678;23.380;2023-12-28T13:04:42;35.53;;;22.15;;
24273;SDS011;12392;42.678;23.380;2023-12-28T13:07:08;38.30;;;21.50;;
24273;SDS011;12392;42.678;23.380;2023-12-28T13:09:34;41.85;;;21.92;;
24273;SDS011;12392;42.678;23.380;2023-12-28T13:12:00;35.88;;;22.15;;
24273;SDS011;12392;42.678;23.380;2023-12-28T13:14:28;38.00;;;22.15;;
24273;SDS011;12392;42.678;23.380;2023-12-28T13:16:54;35.63;;;22.42;;
24273;SDS011;12392;42.678;23.380;2023-12-28T13:19:20;40.20;;;21.35;;
24273;SDS011;12392;42.678;23.380;2023-12-28T13:21:46;37.05;;;20.83;;
24273;SDS011;12392;42.678;23.380;2023-12-28T13:24:12;31.08;;;19.27;;
24273;SDS011;12392;42.678;23.380;2023-12-28T13:26:37;33.20;;;20.02;;
24273;SDS011;12392;42.678;23.380;2023-12-28T13:29:03;32.28;;;20.58;;
24273;SDS011;12392;42.678;23.380;2023-12-28T13:31:29;29.98;;;19.13;;
24273;SDS011;12392;42.678;23.380;2023-12-28T13:33:54;39.58;;;21.38;;
24273;SDS011;12392;42.678;23.380;2023-12-28T13:36:20;36.88;;;20.73;;
24273;SDS011;12392;42.678;23.380;2023-12-28T13:38:46;36.10;;;20.05;;
24273;SDS011;12392;42.678;23.380;2023-12-28T13:41:12;34.10;;;19.75;;
24273;SDS011;12392;42.678;23.380;2023-12-28T13:43:38;35.20;;;20.17;;
24273;SDS011;12392;42.678;23.380;2023-12-28T13:46:04;36.25;;;19.77;;
24273;SDS011;12392;42.678;23.380;2023-12-28T13:48:30;35.03;;;18.63;;
24273;SDS011;12392;42.678;23.380;2023-12-28T13:50:56;30.05;;;19.17;;
24273;SDS011;12392;42.678;23.380;2023-12-28T13:53:21;30.67;;;19.08;;
24273;SDS011;12392;42.678;23.380;2023-12-28T13:55:47;34.60;;;19.60;;
24273;SDS011;12392;42.678;23.380;2023-12-28T13:58:13;34.83;;;17.90;;
24273;SDS011;12392;42.678;23.380;2023-12-28T14:00:39;39.60;;;23.00;;
24273;SDS011;12392;42.678;23.380;2023-12-28T14:03:05;39.08;;;21.77;;
24273;SDS011;12392;42.678;23.380;2023-12-28T14:05:30;43.78;;;23.92;;
24273;SDS011;12392;42.678;23.380;2023-12-28T14:07:56;44.70;;;23.85;;
24273;SDS011;12392;42.678;23.380;2023-12-28T14:10:22;42.25;;;22.75;;
24273;SDS011;12392;42.678;23.380;2023-12-28T14:12:48;38.13;;;22.10;;